FDB2MF LTFM-OMDB
Flight info
| Callsign | FDB2MF |
|---|---|
| Flight time | 4h 39m |
| Altitude | 33000 |
| Route | RATVU1E/36 RATVU UT35 AYT UA16 TOMBI DCT SAFTA/N0468F350 L324 LAKTO L560 SILKA M872 BDB Y214 KUPMI/N0470F370 Y214 RAPMA DCT KUVSO DCT KATIT DCT PEKEM M628 RIGIL G783 ELUDA/N0475F350 G783 ASPED Q308 KIPOK/N0475F340 Q568 IMPED |
| Aircraft | B738/M-SDE2E3FGHIRWXY/LB1 |
Departure
| Time | 2026-05-04 11:45 |
|---|---|
| Airport | İstanbul Airport (LTFM) |
Arrival
| Time | 2026-05-04 16:24 |
|---|---|
| Airport | Dubai International Airport (OMDB) |
| Time | Latitude | Longitude | Altitude | Speed | Heading |
|---|---|---|---|---|---|
| 2026-05-04 11:10 | 41.26786 | 28.74913 | 333 ft | 0 kts | 179° |
| 2026-05-04 11:35 | 41.26807 | 28.74912 | 329 ft | 4 kts | 179° |
| 2026-05-04 11:35 | 41.26834 | 28.74911 | 329 ft | 4 kts | 178° |
| 2026-05-04 11:36 | 41.26856 | 28.74910 | 330 ft | 4 kts | 168° |
| 2026-05-04 11:36 | 41.26879 | 28.74896 | 330 ft | 4 kts | 131° |
| 2026-05-04 11:36 | 41.26889 | 28.74866 | 332 ft | 4 kts | 90° |
| 2026-05-04 11:36 | 41.26889 | 28.74839 | 332 ft | 0 kts | 89° |
| 2026-05-04 11:40 | 41.26889 | 28.74978 | 333 ft | 7 kts | 88° |
| 2026-05-04 11:41 | 41.26891 | 28.75073 | 333 ft | 11 kts | 88° |
| 2026-05-04 11:41 | 41.26893 | 28.75172 | 333 ft | 11 kts | 88° |
| 2026-05-04 11:41 | 41.26895 | 28.75269 | 333 ft | 10 kts | 91° |
| 2026-05-04 11:41 | 41.26884 | 28.75353 | 330 ft | 7 kts | 133° |
| 2026-05-04 11:42 | 41.26815 | 28.75377 | 333 ft | 14 kts | 178° |
| 2026-05-04 11:42 | 41.26716 | 28.75377 | 329 ft | 14 kts | 178° |
| 2026-05-04 11:42 | 41.26621 | 28.75384 | 332 ft | 13 kts | 176° |
| 2026-05-04 11:42 | 41.26531 | 28.75386 | 332 ft | 13 kts | 182° |
| 2026-05-04 11:43 | 41.26442 | 28.75386 | 333 ft | 13 kts | 179° |
| 2026-05-04 11:43 | 41.26356 | 28.75387 | 333 ft | 12 kts | 179° |
| 2026-05-04 11:43 | 41.26273 | 28.75398 | 330 ft | 12 kts | 152° |
| 2026-05-04 11:43 | 41.26248 | 28.75496 | 333 ft | 12 kts | 87° |
| 2026-05-04 11:44 | 41.26253 | 28.75566 | 329 ft | 11 kts | 83° |
| 2026-05-04 11:44 | 41.26284 | 28.75657 | 330 ft | 11 kts | 32° |
| 2026-05-04 11:44 | 41.26359 | 28.75668 | 329 ft | 11 kts | 356° |
| 2026-05-04 11:44 | 41.26673 | 28.75661 | 330 ft | 85 kts | 359° |
| 2026-05-04 11:45 | 41.27515 | 28.75645 | 329 ft | 154 kts | 359° |
| 2026-05-04 11:45 | 41.28734 | 28.75625 | 720 ft | 184 kts | 359° |
| 2026-05-04 11:45 | 41.30059 | 28.75722 | 1520 ft | 200 kts | 10° |
| 2026-05-04 11:45 | 41.31216 | 28.76623 | 2607 ft | 195 kts | 44° |
| 2026-05-04 11:46 | 41.32266 | 28.77833 | 3210 ft | 206 kts | 32° |
| 2026-05-04 11:46 | 41.33500 | 28.78866 | 3712 ft | 212 kts | 29° |
| 2026-05-04 11:46 | 41.34790 | 28.79866 | 4222 ft | 218 kts | 28° |
| 2026-05-04 11:46 | 41.36160 | 28.80898 | 4565 ft | 233 kts | 28° |
| 2026-05-04 11:47 | 41.37427 | 28.82325 | 5106 ft | 247 kts | 50° |
| 2026-05-04 11:47 | 41.38227 | 28.84362 | 5943 ft | 255 kts | 69° |
| 2026-05-04 11:47 | 41.38421 | 28.86772 | 6654 ft | 267 kts | 83° |
| 2026-05-04 11:47 | 41.38438 | 28.89255 | 7359 ft | 270 kts | 85° |
| 2026-05-04 11:48 | 41.38061 | 28.91760 | 8043 ft | 287 kts | 111° |
| 2026-05-04 11:48 | 41.36791 | 28.93863 | 8777 ft | 301 kts | 141° |
| 2026-05-04 11:48 | 41.34821 | 28.94922 | 9390 ft | 314 kts | 173° |
| 2026-05-04 11:48 | 41.32627 | 28.94953 | 10076 ft | 318 kts | 181° |
| 2026-05-04 11:49 | 41.30365 | 28.94879 | 10445 ft | 335 kts | 180° |
| 2026-05-04 11:49 | 41.27955 | 28.94856 | 10609 ft | 356 kts | 179° |
| 2026-05-04 11:49 | 41.25435 | 28.94873 | 10773 ft | 377 kts | 179° |
| 2026-05-04 11:49 | 41.22740 | 28.94761 | 10928 ft | 397 kts | 183° |
| 2026-05-04 11:50 | 41.19932 | 28.94492 | 11161 ft | 412 kts | 184° |
| 2026-05-04 11:50 | 41.17051 | 28.94174 | 11656 ft | 418 kts | 184° |
| 2026-05-04 11:50 | 41.14125 | 28.93861 | 12291 ft | 423 kts | 184° |
| 2026-05-04 11:50 | 41.11184 | 28.93579 | 13024 ft | 423 kts | 181° |
| 2026-05-04 11:51 | 41.08241 | 28.93757 | 13616 ft | 425 kts | 168° |
| 2026-05-04 11:51 | 41.05473 | 28.94631 | 14126 ft | 426 kts | 160° |
| 2026-05-04 11:51 | 41.02621 | 28.95758 | 14731 ft | 429 kts | 160° |
| 2026-05-04 11:51 | 40.99759 | 28.96900 | 15309 ft | 431 kts | 160° |
| 2026-05-04 11:52 | 40.96908 | 28.98027 | 15887 ft | 434 kts | 160° |
| 2026-05-04 11:52 | 40.94004 | 28.99159 | 16432 ft | 436 kts | 161° |
| 2026-05-04 11:52 | 40.91065 | 29.00294 | 16915 ft | 440 kts | 161° |
| 2026-05-04 11:52 | 40.88110 | 29.01424 | 17426 ft | 443 kts | 161° |
| 2026-05-04 11:53 | 40.85139 | 29.02551 | 17952 ft | 445 kts | 162° |
| 2026-05-04 11:53 | 40.82150 | 29.03682 | 18458 ft | 449 kts | 162° |
| 2026-05-04 11:53 | 40.79135 | 29.04820 | 18868 ft | 452 kts | 162° |
| 2026-05-04 11:53 | 40.76104 | 29.05964 | 19305 ft | 454 kts | 162° |
| 2026-05-04 11:55 | 40.54477 | 29.14020 | 22153 ft | 473 kts | 161° |
| 2026-05-04 11:55 | 40.51333 | 29.15221 | 22738 ft | 471 kts | 161° |
| 2026-05-04 11:56 | 40.48174 | 29.16417 | 23016 ft | 475 kts | 160° |
| 2026-05-04 11:56 | 40.44949 | 29.17670 | 23350 ft | 479 kts | 161° |
| 2026-05-04 11:56 | 40.41740 | 29.18880 | 23777 ft | 480 kts | 161° |
| 2026-05-04 11:56 | 40.38577 | 29.20104 | 24078 ft | 482 kts | 161° |
| 2026-05-04 11:57 | 40.35343 | 29.21301 | 24362 ft | 484 kts | 162° |
| 2026-05-04 11:57 | 40.32091 | 29.22495 | 24603 ft | 485 kts | 161° |
| 2026-05-04 11:57 | 40.28830 | 29.23708 | 24777 ft | 487 kts | 161° |
| 2026-05-04 11:57 | 40.25560 | 29.24920 | 24926 ft | 490 kts | 161° |
| 2026-05-04 11:58 | 40.22267 | 29.26135 | 25178 ft | 492 kts | 161° |
| 2026-05-04 11:58 | 40.18970 | 29.27351 | 25520 ft | 493 kts | 161° |
| 2026-05-04 11:58 | 40.15730 | 29.28550 | 25817 ft | 495 kts | 161° |
| 2026-05-04 11:58 | 40.12411 | 29.29780 | 26104 ft | 496 kts | 161° |
| 2026-05-04 11:59 | 40.09082 | 29.31015 | 26370 ft | 497 kts | 161° |
| 2026-05-04 11:59 | 40.05754 | 29.32256 | 26613 ft | 498 kts | 161° |
| 2026-05-04 11:59 | 40.02416 | 29.33488 | 26916 ft | 498 kts | 161° |
| 2026-05-04 11:59 | 39.99154 | 29.34686 | 27316 ft | 496 kts | 161° |
| 2026-05-04 12:00 | 39.95831 | 29.35908 | 27758 ft | 494 kts | 161° |
| 2026-05-04 12:00 | 39.92531 | 29.37123 | 28124 ft | 493 kts | 161° |
| 2026-05-04 12:00 | 39.89250 | 29.38456 | 28419 ft | 492 kts | 156° |
| 2026-05-04 12:00 | 39.86087 | 29.40132 | 28779 ft | 490 kts | 153° |
| 2026-05-04 12:01 | 39.82968 | 29.41906 | 29184 ft | 487 kts | 153° |
| 2026-05-04 12:01 | 39.79875 | 29.43681 | 29501 ft | 487 kts | 153° |
| 2026-05-04 12:02 | 39.61143 | 29.53951 | 31300 ft | 487 kts | 155° |
| 2026-05-04 12:03 | 39.57977 | 29.55522 | 31672 ft | 484 kts | 156° |
| 2026-05-04 12:03 | 39.54828 | 29.57087 | 31934 ft | 484 kts | 156° |
| 2026-05-04 12:03 | 39.51678 | 29.58643 | 32154 ft | 485 kts | 157° |
| 2026-05-04 12:03 | 39.48523 | 29.60203 | 32421 ft | 484 kts | 157° |
| 2026-05-04 12:04 | 39.45377 | 29.61764 | 32691 ft | 484 kts | 157° |
| 2026-05-04 12:04 | 39.42234 | 29.63327 | 32919 ft | 484 kts | 157° |
| 2026-05-04 12:04 | 39.35932 | 29.66466 | 32979 ft | 486 kts | 157° |
| 2026-05-04 12:05 | 39.29616 | 29.69605 | 33002 ft | 486 kts | 157° |
| 2026-05-04 12:05 | 39.23292 | 29.72742 | 32987 ft | 488 kts | 157° |
| 2026-05-04 12:06 | 39.16943 | 29.75885 | 32986 ft | 489 kts | 157° |
| 2026-05-04 12:06 | 39.10635 | 29.79000 | 32971 ft | 488 kts | 157° |
| 2026-05-04 12:07 | 39.04291 | 29.82129 | 32985 ft | 488 kts | 158° |
| 2026-05-04 12:07 | 38.98063 | 29.85196 | 32975 ft | 488 kts | 158° |
| 2026-05-04 12:08 | 38.91725 | 29.88311 | 32969 ft | 488 kts | 158° |
| 2026-05-04 12:08 | 38.85365 | 29.91401 | 32957 ft | 488 kts | 158° |
| 2026-05-04 12:09 | 38.78985 | 29.94425 | 32961 ft | 489 kts | 158° |
| 2026-05-04 12:09 | 38.72592 | 29.97449 | 32958 ft | 490 kts | 158° |
| 2026-05-04 12:10 | 38.66226 | 30.00463 | 32959 ft | 490 kts | 158° |
| 2026-05-04 12:10 | 38.59834 | 30.03486 | 32957 ft | 490 kts | 159° |
| 2026-05-04 12:11 | 38.53414 | 30.06518 | 32961 ft | 490 kts | 159° |
| 2026-05-04 12:11 | 38.47034 | 30.09525 | 32959 ft | 490 kts | 159° |
| 2026-05-04 12:12 | 38.40623 | 30.12542 | 32969 ft | 491 kts | 159° |
| 2026-05-04 12:12 | 38.34196 | 30.15559 | 32954 ft | 491 kts | 159° |
| 2026-05-04 12:14 | 38.08425 | 30.27370 | 32954 ft | 492 kts | 160° |
| 2026-05-04 12:15 | 38.01973 | 30.30328 | 32966 ft | 492 kts | 160° |
| 2026-05-04 12:15 | 37.95592 | 30.33228 | 32970 ft | 493 kts | 160° |
| 2026-05-04 12:16 | 37.89128 | 30.36145 | 32972 ft | 493 kts | 160° |
| 2026-05-04 12:16 | 37.82703 | 30.39041 | 32962 ft | 493 kts | 160° |
| 2026-05-04 12:17 | 37.76238 | 30.41956 | 32955 ft | 492 kts | 160° |
| 2026-05-04 12:17 | 37.69772 | 30.44867 | 32952 ft | 492 kts | 161° |
| 2026-05-04 12:18 | 37.63313 | 30.47767 | 32941 ft | 493 kts | 161° |
| 2026-05-04 12:18 | 37.56849 | 30.50663 | 32911 ft | 493 kts | 161° |
| 2026-05-04 12:19 | 37.50372 | 30.53560 | 32910 ft | 494 kts | 161° |
| 2026-05-04 12:19 | 37.43924 | 30.56440 | 32893 ft | 495 kts | 161° |
| 2026-05-04 12:20 | 37.37419 | 30.59340 | 32892 ft | 496 kts | 161° |
| 2026-05-04 12:20 | 37.30912 | 30.62236 | 32880 ft | 497 kts | 161° |
| 2026-05-04 12:21 | 37.24342 | 30.65154 | 32871 ft | 498 kts | 161° |
| 2026-05-04 12:21 | 37.17833 | 30.68040 | 32882 ft | 501 kts | 161° |
| 2026-05-04 12:22 | 37.11235 | 30.70958 | 32885 ft | 503 kts | 161° |
| 2026-05-04 12:22 | 37.05735 | 30.73391 | 32861 ft | 496 kts | 161° |
| 2026-05-04 12:23 | 36.99271 | 30.76244 | 32881 ft | 490 kts | 161° |
| 2026-05-04 12:23 | 36.92797 | 30.78928 | 32877 ft | 489 kts | 168° |
| 2026-05-04 12:24 | 36.86113 | 30.79792 | 32895 ft | 485 kts | 180° |
| 2026-05-04 12:24 | 36.79344 | 30.79923 | 32877 ft | 486 kts | 181° |
| 2026-05-04 12:25 | 36.72555 | 30.80097 | 32867 ft | 489 kts | 180° |
| 2026-05-04 12:25 | 36.65736 | 30.80333 | 32854 ft | 490 kts | 180° |
| 2026-05-04 12:26 | 36.58926 | 30.80582 | 32854 ft | 489 kts | 180° |
| 2026-05-04 12:26 | 36.52124 | 30.80826 | 32845 ft | 488 kts | 180° |
| 2026-05-04 12:27 | 36.45341 | 30.81068 | 32839 ft | 486 kts | 180° |
| 2026-05-04 12:27 | 36.38691 | 30.81299 | 32839 ft | 484 kts | 181° |
| 2026-05-04 12:28 | 36.31977 | 30.81514 | 32843 ft | 482 kts | 181° |
| 2026-05-04 12:28 | 36.25276 | 30.81724 | 32841 ft | 482 kts | 181° |
| 2026-05-04 12:29 | 36.18580 | 30.81937 | 32837 ft | 481 kts | 181° |
| 2026-05-04 12:29 | 36.11902 | 30.82151 | 32856 ft | 479 kts | 181° |
| 2026-05-04 12:30 | 36.05233 | 30.82428 | 32837 ft | 480 kts | 177° |
| 2026-05-04 12:30 | 35.98757 | 30.84259 | 32864 ft | 484 kts | 165° |
| 2026-05-04 12:31 | 35.92341 | 30.86822 | 32847 ft | 485 kts | 165° |
| 2026-05-04 12:31 | 35.85922 | 30.89374 | 32846 ft | 485 kts | 165° |
| 2026-05-04 12:32 | 35.76257 | 30.93111 | 32847 ft | 484 kts | 166° |
| 2026-05-04 12:33 | 35.69816 | 30.95576 | 32849 ft | 485 kts | 166° |
| 2026-05-04 12:33 | 35.63369 | 30.98040 | 32856 ft | 485 kts | 166° |
| 2026-05-04 12:34 | 35.56915 | 31.00498 | 32854 ft | 485 kts | 166° |
| 2026-05-04 12:34 | 35.50463 | 31.02954 | 32856 ft | 486 kts | 167° |
| 2026-05-04 12:35 | 35.44001 | 31.05412 | 32853 ft | 486 kts | 167° |
| 2026-05-04 12:35 | 35.37528 | 31.07869 | 32861 ft | 487 kts | 167° |
| 2026-05-04 12:36 | 35.31050 | 31.10325 | 32865 ft | 487 kts | 167° |
| 2026-05-04 12:36 | 35.24568 | 31.12778 | 32861 ft | 487 kts | 167° |
| 2026-05-04 12:37 | 35.18089 | 31.15227 | 32869 ft | 487 kts | 167° |
| 2026-05-04 12:37 | 35.11616 | 31.17669 | 32866 ft | 487 kts | 167° |
| 2026-05-04 12:38 | 35.05186 | 31.20090 | 32867 ft | 486 kts | 168° |
| 2026-05-04 12:38 | 34.98769 | 31.22501 | 32866 ft | 486 kts | 168° |
| 2026-05-04 12:39 | 34.92261 | 31.24946 | 32874 ft | 485 kts | 168° |
| 2026-05-04 12:39 | 34.85812 | 31.27361 | 32874 ft | 485 kts | 168° |
| 2026-05-04 12:40 | 34.79307 | 31.29794 | 32877 ft | 485 kts | 169° |
| 2026-05-04 12:40 | 34.72872 | 31.32198 | 32883 ft | 484 kts | 169° |
| 2026-05-04 12:41 | 34.66431 | 31.34598 | 32888 ft | 484 kts | 169° |
| 2026-05-04 12:41 | 34.59992 | 31.36994 | 32889 ft | 484 kts | 170° |
| 2026-05-04 12:42 | 34.53503 | 31.39404 | 32888 ft | 484 kts | 170° |
| 2026-05-04 12:42 | 34.47060 | 31.41795 | 32897 ft | 484 kts | 171° |
| 2026-05-04 12:43 | 34.40611 | 31.44185 | 32902 ft | 484 kts | 171° |
| 2026-05-04 12:43 | 34.34160 | 31.46570 | 32901 ft | 486 kts | 171° |
| 2026-05-04 12:44 | 34.27682 | 31.48961 | 32903 ft | 487 kts | 171° |
| 2026-05-04 12:44 | 34.21194 | 31.51353 | 32907 ft | 488 kts | 172° |
| 2026-05-04 12:45 | 34.14736 | 31.53731 | 32909 ft | 489 kts | 172° |
| 2026-05-04 12:45 | 34.08224 | 31.56124 | 32911 ft | 489 kts | 172° |
| 2026-05-04 12:46 | 34.01710 | 31.58514 | 32914 ft | 490 kts | 172° |
| 2026-05-04 12:46 | 33.95180 | 31.60905 | 32919 ft | 491 kts | 172° |
| 2026-05-04 12:47 | 33.88643 | 31.63297 | 32921 ft | 491 kts | 172° |
| 2026-05-04 12:47 | 33.82096 | 31.65688 | 32918 ft | 491 kts | 173° |
| 2026-05-04 12:48 | 33.75558 | 31.68068 | 32928 ft | 491 kts | 173° |
| 2026-05-04 12:48 | 33.69016 | 31.70436 | 32932 ft | 490 kts | 173° |
| 2026-05-04 12:49 | 33.62481 | 31.72798 | 32931 ft | 490 kts | 173° |
| 2026-05-04 12:49 | 33.55955 | 31.75154 | 32935 ft | 489 kts | 173° |
| 2026-05-04 12:50 | 33.49428 | 31.77509 | 32941 ft | 488 kts | 173° |
| 2026-05-04 12:50 | 33.42919 | 31.79853 | 32944 ft | 488 kts | 173° |
| 2026-05-04 12:51 | 33.36407 | 31.82198 | 32943 ft | 488 kts | 174° |
| 2026-05-04 12:51 | 33.29900 | 31.84538 | 32949 ft | 488 kts | 174° |
| 2026-05-04 12:52 | 33.23390 | 31.86878 | 32952 ft | 488 kts | 174° |
| 2026-05-04 12:52 | 33.16875 | 31.89215 | 32951 ft | 488 kts | 174° |
| 2026-05-04 12:53 | 33.10367 | 31.91547 | 32956 ft | 488 kts | 174° |
| 2026-05-04 12:53 | 33.03896 | 31.93861 | 32958 ft | 487 kts | 174° |
| 2026-05-04 12:54 | 32.98521 | 31.95781 | 32971 ft | 487 kts | 174° |
| 2026-05-04 12:54 | 32.91998 | 31.98106 | 32965 ft | 486 kts | 174° |
| 2026-05-04 12:55 | 32.85528 | 32.00411 | 32967 ft | 484 kts | 174° |
| 2026-05-04 12:55 | 32.79079 | 32.02705 | 32970 ft | 483 kts | 174° |
| 2026-05-04 12:56 | 32.72647 | 32.04988 | 32968 ft | 482 kts | 174° |
| 2026-05-04 12:56 | 32.66218 | 32.07273 | 32970 ft | 482 kts | 173° |
| 2026-05-04 12:56 | 32.63059 | 32.08752 | 32982 ft | 494 kts | 164° |
| 2026-05-04 12:57 | 32.60044 | 32.10824 | 32994 ft | 508 kts | 155° |
| 2026-05-04 12:57 | 32.54309 | 32.15761 | 32984 ft | 510 kts | 153° |
| 2026-05-04 12:58 | 32.48611 | 32.20751 | 32986 ft | 509 kts | 153° |
| 2026-05-04 12:58 | 32.42877 | 32.25661 | 32984 ft | 507 kts | 154° |
| 2026-05-04 12:59 | 32.37137 | 32.30514 | 32989 ft | 507 kts | 154° |
| 2026-05-04 12:59 | 32.31399 | 32.35355 | 32997 ft | 506 kts | 154° |
| 2026-05-04 13:00 | 32.25704 | 32.40162 | 33004 ft | 506 kts | 154° |
| 2026-05-04 13:00 | 32.19977 | 32.44988 | 33004 ft | 506 kts | 154° |
| 2026-05-04 13:01 | 32.14247 | 32.49809 | 33007 ft | 505 kts | 154° |
| 2026-05-04 13:01 | 32.08525 | 32.54611 | 33007 ft | 504 kts | 154° |
| 2026-05-04 13:02 | 32.02812 | 32.59400 | 33005 ft | 503 kts | 154° |
| 2026-05-04 13:02 | 31.97113 | 32.64171 | 33014 ft | 502 kts | 154° |
| 2026-05-04 13:03 | 31.91356 | 32.68983 | 33019 ft | 500 kts | 154° |
| 2026-05-04 13:03 | 31.85683 | 32.73717 | 33028 ft | 499 kts | 154° |
| 2026-05-04 13:04 | 31.80022 | 32.78435 | 33025 ft | 497 kts | 154° |
| 2026-05-04 13:04 | 31.74378 | 32.83126 | 33034 ft | 496 kts | 154° |
| 2026-05-04 13:05 | 31.68741 | 32.87810 | 33028 ft | 495 kts | 154° |
| 2026-05-04 13:05 | 31.63123 | 32.92473 | 33036 ft | 494 kts | 155° |
| 2026-05-04 13:06 | 31.57501 | 32.97128 | 33038 ft | 494 kts | 155° |
| 2026-05-04 13:06 | 31.51928 | 33.01737 | 33037 ft | 494 kts | 155° |
| 2026-05-04 13:07 | 31.46313 | 33.06375 | 33040 ft | 493 kts | 155° |
| 2026-05-04 13:07 | 31.40698 | 33.11006 | 33035 ft | 493 kts | 155° |
| 2026-05-04 13:08 | 31.34906 | 33.15092 | 33039 ft | 475 kts | 168° |
| 2026-05-04 13:08 | 31.28734 | 33.17537 | 33037 ft | 466 kts | 173° |
| 2026-05-04 13:09 | 31.22558 | 33.19851 | 33038 ft | 466 kts | 173° |
| 2026-05-04 13:09 | 31.16391 | 33.22209 | 33039 ft | 467 kts | 173° |
| 2026-05-04 13:10 | 31.10226 | 33.24599 | 33038 ft | 466 kts | 172° |
| 2026-05-04 13:10 | 31.04072 | 33.26990 | 33039 ft | 466 kts | 172° |
| 2026-05-04 13:11 | 30.98020 | 33.29337 | 33035 ft | 466 kts | 172° |
| 2026-05-04 13:11 | 30.91865 | 33.31720 | 33033 ft | 466 kts | 172° |
| 2026-05-04 13:12 | 30.85722 | 33.34097 | 33032 ft | 465 kts | 172° |
| 2026-05-04 13:12 | 30.79577 | 33.36467 | 33030 ft | 464 kts | 172° |
| 2026-05-04 13:13 | 30.73437 | 33.38833 | 33031 ft | 465 kts | 172° |
| 2026-05-04 13:13 | 30.67292 | 33.41198 | 33027 ft | 465 kts | 172° |
| 2026-05-04 13:14 | 30.61151 | 33.43559 | 33039 ft | 464 kts | 172° |
| 2026-05-04 13:14 | 30.55049 | 33.45901 | 33028 ft | 465 kts | 172° |
| 2026-05-04 13:15 | 30.48911 | 33.48255 | 33016 ft | 465 kts | 172° |
| 2026-05-04 13:15 | 30.42777 | 33.50602 | 33035 ft | 466 kts | 172° |
| 2026-05-04 13:16 | 30.36597 | 33.52964 | 33033 ft | 467 kts | 172° |
| 2026-05-04 13:16 | 30.30431 | 33.55320 | 33023 ft | 467 kts | 172° |
| 2026-05-04 13:17 | 30.24258 | 33.57674 | 33014 ft | 466 kts | 172° |
| 2026-05-04 13:17 | 30.18085 | 33.60025 | 33012 ft | 467 kts | 172° |
| 2026-05-04 13:18 | 30.11916 | 33.62372 | 33020 ft | 466 kts | 172° |
| 2026-05-04 13:18 | 30.05756 | 33.64711 | 33018 ft | 466 kts | 172° |
| 2026-05-04 13:19 | 29.99669 | 33.67021 | 33019 ft | 466 kts | 172° |
| 2026-05-04 13:19 | 29.93505 | 33.69357 | 33028 ft | 466 kts | 172° |
| 2026-05-04 13:20 | 29.87373 | 33.71677 | 33023 ft | 466 kts | 172° |
| 2026-05-04 13:20 | 29.81051 | 33.74066 | 33025 ft | 466 kts | 172° |
| 2026-05-04 13:21 | 29.75043 | 33.76333 | 33028 ft | 467 kts | 172° |
| 2026-05-04 13:21 | 29.68870 | 33.78661 | 33043 ft | 467 kts | 172° |
| 2026-05-04 13:22 | 29.62692 | 33.80988 | 33041 ft | 467 kts | 172° |
| 2026-05-04 13:22 | 29.56508 | 33.83309 | 33041 ft | 467 kts | 172° |
| 2026-05-04 13:23 | 29.50318 | 33.85623 | 33036 ft | 467 kts | 172° |
| 2026-05-04 13:23 | 29.44122 | 33.87936 | 33041 ft | 468 kts | 172° |
| 2026-05-04 13:24 | 29.37929 | 33.90246 | 33033 ft | 468 kts | 172° |
| 2026-05-04 13:24 | 29.31737 | 33.92556 | 33040 ft | 468 kts | 171° |
| 2026-05-04 13:25 | 29.22453 | 33.96012 | 33037 ft | 468 kts | 171° |
| 2026-05-04 13:25 | 29.16298 | 33.98305 | 33032 ft | 468 kts | 171° |
| 2026-05-04 13:26 | 29.10102 | 34.00619 | 33031 ft | 468 kts | 171° |
| 2026-05-04 13:26 | 29.03872 | 34.02943 | 33019 ft | 467 kts | 171° |
| 2026-05-04 13:27 | 28.98743 | 34.04854 | 33021 ft | 467 kts | 171° |
| 2026-05-04 13:27 | 28.91544 | 34.07529 | 33017 ft | 468 kts | 171° |
| 2026-05-04 13:28 | 28.85346 | 34.09828 | 33007 ft | 468 kts | 171° |
| 2026-05-04 13:28 | 28.80154 | 34.11753 | 33007 ft | 468 kts | 171° |
| 2026-05-04 13:29 | 28.73959 | 34.14047 | 32988 ft | 468 kts | 171° |
| 2026-05-04 13:29 | 28.67825 | 34.16316 | 32986 ft | 468 kts | 171° |
| 2026-05-04 13:30 | 28.61636 | 34.18608 | 32983 ft | 468 kts | 171° |
| 2026-05-04 13:30 | 28.55444 | 34.20891 | 32979 ft | 466 kts | 171° |
| 2026-05-04 13:31 | 28.49264 | 34.23167 | 32958 ft | 467 kts | 171° |
| 2026-05-04 13:31 | 28.43080 | 34.25443 | 32969 ft | 467 kts | 171° |
| 2026-05-04 13:32 | 28.36886 | 34.27719 | 32928 ft | 466 kts | 171° |
| 2026-05-04 13:32 | 28.30704 | 34.29989 | 32934 ft | 467 kts | 171° |
| 2026-05-04 13:33 | 28.24521 | 34.32255 | 32917 ft | 467 kts | 171° |
| 2026-05-04 13:33 | 28.18395 | 34.34504 | 32945 ft | 465 kts | 171° |
| 2026-05-04 13:34 | 28.12191 | 34.36774 | 32936 ft | 465 kts | 171° |
| 2026-05-04 13:34 | 28.06067 | 34.39012 | 32935 ft | 465 kts | 171° |
| 2026-05-04 13:35 | 27.97008 | 34.43214 | 32937 ft | 484 kts | 155° |
| 2026-05-04 13:36 | 27.91399 | 34.47506 | 32932 ft | 487 kts | 153° |
| 2026-05-04 13:36 | 27.85808 | 34.51855 | 32930 ft | 488 kts | 154° |
| 2026-05-04 13:37 | 27.80189 | 34.56159 | 32929 ft | 488 kts | 154° |
| 2026-05-04 13:37 | 27.74551 | 34.60426 | 32921 ft | 488 kts | 154° |
| 2026-05-04 13:38 | 27.68902 | 34.64685 | 32914 ft | 488 kts | 154° |
| 2026-05-04 13:38 | 27.63242 | 34.68949 | 32922 ft | 488 kts | 154° |
| 2026-05-04 13:39 | 27.57599 | 34.73198 | 32915 ft | 488 kts | 154° |
| 2026-05-04 13:39 | 27.51913 | 34.77475 | 32920 ft | 487 kts | 154° |
| 2026-05-04 13:40 | 27.46272 | 34.81712 | 32918 ft | 487 kts | 154° |
| 2026-05-04 13:40 | 27.40634 | 34.85941 | 32918 ft | 487 kts | 154° |
| 2026-05-04 13:41 | 27.35029 | 34.90141 | 32924 ft | 486 kts | 154° |
| 2026-05-04 13:41 | 27.29354 | 34.94389 | 32924 ft | 487 kts | 154° |
| 2026-05-04 13:42 | 27.20933 | 35.00679 | 32925 ft | 486 kts | 154° |
| 2026-05-04 13:42 | 27.15295 | 35.04884 | 32928 ft | 486 kts | 155° |
| 2026-05-04 13:43 | 27.09653 | 35.09088 | 32933 ft | 486 kts | 155° |
| 2026-05-04 13:43 | 27.04014 | 35.13284 | 32934 ft | 486 kts | 155° |
| 2026-05-04 13:44 | 26.98417 | 35.17445 | 32931 ft | 487 kts | 155° |
| 2026-05-04 13:44 | 26.92778 | 35.21631 | 32929 ft | 487 kts | 155° |
| 2026-05-04 13:45 | 26.87117 | 35.25831 | 32929 ft | 487 kts | 155° |
| 2026-05-04 13:45 | 26.81469 | 35.30013 | 32928 ft | 487 kts | 155° |
| 2026-05-04 13:46 | 26.75800 | 35.34203 | 32928 ft | 488 kts | 155° |
| 2026-05-04 13:46 | 26.70141 | 35.38386 | 32928 ft | 488 kts | 155° |
| 2026-05-04 13:47 | 26.64481 | 35.42565 | 32928 ft | 488 kts | 155° |
| 2026-05-04 13:47 | 26.58931 | 35.47004 | 32919 ft | 500 kts | 144° |
| 2026-05-04 13:48 | 26.56569 | 35.49917 | 32929 ft | 511 kts | 134° |
| 2026-05-04 13:48 | 26.54627 | 35.53292 | 32922 ft | 523 kts | 123° |
| 2026-05-04 13:48 | 26.51719 | 35.60791 | 32925 ft | 528 kts | 118° |
| 2026-05-04 13:49 | 26.48957 | 35.68384 | 32924 ft | 527 kts | 118° |
| 2026-05-04 13:49 | 26.46132 | 35.75929 | 32920 ft | 526 kts | 119° |
| 2026-05-04 13:50 | 26.43255 | 35.83430 | 32930 ft | 525 kts | 119° |
| 2026-05-04 13:50 | 26.40363 | 35.90917 | 32922 ft | 525 kts | 119° |
| 2026-05-04 13:51 | 26.37500 | 35.98325 | 32923 ft | 524 kts | 120° |
| 2026-05-04 13:51 | 26.34590 | 36.05856 | 32921 ft | 524 kts | 120° |
| 2026-05-04 13:52 | 26.30276 | 36.17002 | 32925 ft | 524 kts | 120° |
| 2026-05-04 13:53 | 26.27382 | 36.24457 | 32918 ft | 524 kts | 120° |
| 2026-05-04 13:53 | 26.24486 | 36.31905 | 32916 ft | 523 kts | 120° |
| 2026-05-04 13:54 | 26.20139 | 36.43064 | 32910 ft | 524 kts | 120° |
| 2026-05-04 13:55 | 26.15469 | 36.54054 | 32919 ft | 518 kts | 126° |
| 2026-05-04 13:55 | 26.10199 | 36.64545 | 32914 ft | 518 kts | 126° |
| 2026-05-04 13:56 | 26.06716 | 36.71521 | 32921 ft | 519 kts | 126° |
| 2026-05-04 13:57 | 26.01493 | 36.82099 | 32916 ft | 520 kts | 126° |
| 2026-05-04 13:58 | 25.94530 | 36.96180 | 32907 ft | 519 kts | 126° |
| 2026-05-04 13:58 | 25.89303 | 37.06712 | 32906 ft | 519 kts | 126° |
| 2026-05-04 13:59 | 25.85818 | 37.13723 | 32895 ft | 518 kts | 126° |
| 2026-05-04 14:00 | 25.80588 | 37.24220 | 32885 ft | 517 kts | 126° |
| 2026-05-04 14:00 | 25.75372 | 37.34691 | 32892 ft | 516 kts | 126° |
| 2026-05-04 14:01 | 25.71900 | 37.41660 | 32899 ft | 515 kts | 126° |
| 2026-05-04 14:02 | 25.66690 | 37.52088 | 32904 ft | 515 kts | 127° |
| 2026-05-04 14:02 | 25.63776 | 37.57910 | 32908 ft | 515 kts | 127° |
| 2026-05-04 14:03 | 25.60288 | 37.64873 | 32899 ft | 517 kts | 127° |
| 2026-05-04 14:03 | 25.56798 | 37.71828 | 32884 ft | 517 kts | 127° |
| 2026-05-04 14:04 | 25.51564 | 37.82240 | 32883 ft | 515 kts | 127° |
| 2026-05-04 14:04 | 25.48078 | 37.89163 | 32892 ft | 514 kts | 127° |
| 2026-05-04 14:05 | 25.42826 | 37.99569 | 32888 ft | 514 kts | 127° |
| 2026-05-04 14:06 | 25.39335 | 38.06470 | 32863 ft | 515 kts | 127° |
| 2026-05-04 14:06 | 25.35831 | 38.13393 | 32869 ft | 515 kts | 127° |
| 2026-05-04 14:07 | 25.32329 | 38.20299 | 32873 ft | 514 kts | 127° |
| 2026-05-04 14:07 | 25.28824 | 38.27200 | 32859 ft | 514 kts | 127° |
| 2026-05-04 14:08 | 25.25322 | 38.34086 | 32869 ft | 514 kts | 127° |
| 2026-05-04 14:08 | 25.21830 | 38.40940 | 32882 ft | 516 kts | 127° |
| 2026-05-04 14:09 | 25.16533 | 38.51323 | 32879 ft | 517 kts | 127° |
| 2026-05-04 14:10 | 25.11232 | 38.61693 | 32867 ft | 518 kts | 127° |
| 2026-05-04 14:10 | 25.07734 | 38.68527 | 32878 ft | 517 kts | 127° |
| 2026-05-04 14:11 | 25.04198 | 38.75426 | 32871 ft | 517 kts | 127° |
| 2026-05-04 14:11 | 24.98920 | 38.85709 | 32876 ft | 516 kts | 127° |
| 2026-05-04 14:12 | 24.95382 | 38.92586 | 32878 ft | 516 kts | 127° |
| 2026-05-04 14:13 | 24.90043 | 39.02867 | 32889 ft | 514 kts | 127° |
| 2026-05-04 14:13 | 24.86488 | 39.09704 | 32897 ft | 514 kts | 127° |
| 2026-05-04 14:14 | 24.82940 | 39.16524 | 32885 ft | 513 kts | 127° |
| 2026-05-04 14:14 | 24.77644 | 39.26687 | 32901 ft | 512 kts | 127° |
| 2026-05-04 14:15 | 24.70547 | 39.40278 | 32908 ft | 513 kts | 127° |
| 2026-05-04 14:16 | 24.65199 | 39.50495 | 32907 ft | 514 kts | 127° |
| 2026-05-04 14:17 | 24.59836 | 39.60724 | 32937 ft | 516 kts | 127° |
| 2026-05-04 14:18 | 24.54955 | 39.71426 | 32919 ft | 532 kts | 112° |
| 2026-05-04 14:18 | 24.53656 | 39.79394 | 32919 ft | 534 kts | 99° |
| 2026-05-04 14:19 | 24.52985 | 39.87552 | 32906 ft | 531 kts | 99° |
| 2026-05-04 14:19 | 24.52291 | 39.95617 | 32920 ft | 531 kts | 99° |
| 2026-05-04 14:20 | 24.51523 | 40.03681 | 32926 ft | 538 kts | 100° |
| 2026-05-04 14:20 | 24.50718 | 40.11865 | 32922 ft | 539 kts | 100° |
| 2026-05-04 14:21 | 24.49508 | 40.24176 | 32912 ft | 540 kts | 100° |
| 2026-05-04 14:21 | 24.48702 | 40.32353 | 32910 ft | 539 kts | 100° |
| 2026-05-04 14:22 | 24.47890 | 40.40541 | 32911 ft | 538 kts | 100° |
| 2026-05-04 14:22 | 24.47079 | 40.48679 | 32911 ft | 537 kts | 100° |
| 2026-05-04 14:23 | 24.45844 | 40.60959 | 32907 ft | 535 kts | 100° |
| 2026-05-04 14:24 | 24.45027 | 40.69074 | 32904 ft | 534 kts | 100° |
| 2026-05-04 14:24 | 24.44213 | 40.77182 | 32905 ft | 534 kts | 100° |
| 2026-05-04 14:25 | 24.43402 | 40.85225 | 32909 ft | 533 kts | 100° |
| 2026-05-04 14:25 | 24.42170 | 40.97333 | 32922 ft | 532 kts | 100° |
| 2026-05-04 14:26 | 24.41345 | 41.05394 | 32919 ft | 531 kts | 100° |
| 2026-05-04 14:26 | 24.40506 | 41.13457 | 32930 ft | 531 kts | 100° |
| 2026-05-04 14:27 | 24.39655 | 41.21518 | 32930 ft | 530 kts | 100° |
| 2026-05-04 14:27 | 24.38807 | 41.29504 | 32932 ft | 530 kts | 100° |
| 2026-05-04 14:28 | 24.37952 | 41.37536 | 32943 ft | 530 kts | 100° |
| 2026-05-04 14:28 | 24.37094 | 41.45566 | 32942 ft | 530 kts | 100° |
| 2026-05-04 14:29 | 24.35359 | 41.61665 | 32946 ft | 529 kts | 100° |
| 2026-05-04 14:30 | 24.34487 | 41.69696 | 32949 ft | 529 kts | 100° |
| 2026-05-04 14:31 | 24.33167 | 41.81655 | 32943 ft | 528 kts | 102° |
| 2026-05-04 14:32 | 24.29322 | 41.97033 | 32949 ft | 523 kts | 111° |
| 2026-05-04 14:32 | 24.27226 | 42.04727 | 32945 ft | 523 kts | 111° |
| 2026-05-04 14:33 | 24.25200 | 42.12346 | 32946 ft | 524 kts | 111° |
| 2026-05-04 14:33 | 24.23160 | 42.20071 | 32952 ft | 524 kts | 111° |
| 2026-05-04 14:34 | 24.21136 | 42.27719 | 32953 ft | 524 kts | 110° |
| 2026-05-04 14:34 | 24.19102 | 42.35375 | 32958 ft | 523 kts | 110° |
| 2026-05-04 14:35 | 24.17084 | 42.42946 | 32949 ft | 523 kts | 110° |
| 2026-05-04 14:35 | 24.15055 | 42.50537 | 32953 ft | 522 kts | 110° |
| 2026-05-04 14:36 | 24.13016 | 42.58162 | 32961 ft | 521 kts | 110° |
| 2026-05-04 14:36 | 24.10977 | 42.65763 | 32957 ft | 520 kts | 110° |
| 2026-05-04 14:37 | 24.08933 | 42.73367 | 32969 ft | 520 kts | 110° |
| 2026-05-04 14:37 | 24.07219 | 42.79727 | 32961 ft | 520 kts | 111° |
| 2026-05-04 14:38 | 24.05176 | 42.87305 | 32967 ft | 519 kts | 110° |
| 2026-05-04 14:38 | 24.03130 | 42.94877 | 32963 ft | 519 kts | 110° |
| 2026-05-04 14:39 | 24.01084 | 43.02439 | 32964 ft | 518 kts | 111° |
| 2026-05-04 14:39 | 23.99064 | 43.09895 | 32958 ft | 518 kts | 111° |
| 2026-05-04 14:40 | 23.95988 | 43.21220 | 32959 ft | 517 kts | 111° |
| 2026-05-04 14:40 | 23.93947 | 43.28713 | 32959 ft | 517 kts | 111° |
| 2026-05-04 14:41 | 23.91890 | 43.36248 | 32959 ft | 517 kts | 110° |
| 2026-05-04 14:42 | 23.87768 | 43.51300 | 32951 ft | 516 kts | 110° |
| 2026-05-04 14:42 | 23.85705 | 43.58809 | 32942 ft | 516 kts | 110° |
| 2026-05-04 14:43 | 23.83637 | 43.66326 | 32939 ft | 516 kts | 110° |
| 2026-05-04 14:43 | 23.81570 | 43.73822 | 32929 ft | 516 kts | 110° |
| 2026-05-04 14:44 | 23.79499 | 43.81320 | 32917 ft | 516 kts | 110° |
| 2026-05-04 14:44 | 23.77494 | 43.88847 | 32910 ft | 519 kts | 106° |
| 2026-05-04 14:45 | 23.76625 | 43.96716 | 32909 ft | 523 kts | 96° |
| 2026-05-04 14:45 | 23.76151 | 44.04636 | 32902 ft | 523 kts | 96° |
| 2026-05-04 14:46 | 23.75639 | 44.12556 | 32895 ft | 523 kts | 97° |
| 2026-05-04 14:46 | 23.75057 | 44.20462 | 32895 ft | 522 kts | 97° |
| 2026-05-04 14:47 | 23.74450 | 44.28372 | 32901 ft | 522 kts | 97° |
| 2026-05-04 14:47 | 23.73841 | 44.36269 | 32904 ft | 522 kts | 97° |
| 2026-05-04 14:48 | 23.73235 | 44.44161 | 32906 ft | 522 kts | 97° |
| 2026-05-04 14:48 | 23.72625 | 44.52047 | 32902 ft | 522 kts | 97° |
| 2026-05-04 14:49 | 23.72011 | 44.59936 | 32908 ft | 521 kts | 97° |
| 2026-05-04 14:49 | 23.71392 | 44.67818 | 32901 ft | 521 kts | 97° |
| 2026-05-04 14:50 | 23.70772 | 44.75675 | 32906 ft | 520 kts | 97° |
| 2026-05-04 14:50 | 23.70147 | 44.83554 | 32899 ft | 520 kts | 97° |
| 2026-05-04 14:51 | 23.69522 | 44.91370 | 32901 ft | 520 kts | 97° |
| 2026-05-04 14:51 | 23.68888 | 44.99226 | 32901 ft | 520 kts | 97° |
| 2026-05-04 14:52 | 23.68249 | 45.07078 | 32913 ft | 519 kts | 97° |
| 2026-05-04 14:52 | 23.67607 | 45.14930 | 32897 ft | 520 kts | 97° |
| 2026-05-04 14:53 | 23.66961 | 45.22793 | 32888 ft | 520 kts | 97° |
| 2026-05-04 14:53 | 23.66313 | 45.30638 | 32887 ft | 519 kts | 97° |
| 2026-05-04 14:54 | 23.65663 | 45.38479 | 32884 ft | 519 kts | 97° |
| 2026-05-04 14:54 | 23.65010 | 45.46323 | 32880 ft | 519 kts | 97° |
| 2026-05-04 14:55 | 23.64351 | 45.54170 | 32867 ft | 518 kts | 97° |
| 2026-05-04 14:55 | 23.63695 | 45.61942 | 32866 ft | 518 kts | 97° |
| 2026-05-04 14:56 | 23.63031 | 45.69768 | 32866 ft | 518 kts | 97° |
| 2026-05-04 14:56 | 23.62361 | 45.77631 | 32863 ft | 517 kts | 97° |
| 2026-05-04 14:57 | 23.61694 | 45.85438 | 32863 ft | 517 kts | 97° |
| 2026-05-04 14:57 | 23.61027 | 45.93178 | 32863 ft | 516 kts | 97° |
| 2026-05-04 14:58 | 23.60353 | 46.00969 | 32860 ft | 515 kts | 97° |
| 2026-05-04 14:58 | 23.59670 | 46.08802 | 32866 ft | 515 kts | 97° |
| 2026-05-04 14:59 | 23.58988 | 46.16582 | 32875 ft | 515 kts | 97° |
| 2026-05-04 15:00 | 23.57968 | 46.28161 | 32866 ft | 515 kts | 97° |
| 2026-05-04 15:00 | 23.57277 | 46.35923 | 32879 ft | 514 kts | 97° |
| 2026-05-04 15:01 | 23.56237 | 46.47551 | 32854 ft | 513 kts | 97° |
| 2026-05-04 15:01 | 23.55533 | 46.55349 | 32857 ft | 512 kts | 98° |
| 2026-05-04 15:02 | 23.54818 | 46.63122 | 32850 ft | 512 kts | 98° |
| 2026-05-04 15:02 | 23.54107 | 46.70797 | 32849 ft | 511 kts | 98° |
| 2026-05-04 15:03 | 23.53390 | 46.78502 | 32850 ft | 510 kts | 98° |
| 2026-05-04 15:03 | 23.52671 | 46.86204 | 32846 ft | 510 kts | 98° |
| 2026-05-04 15:04 | 23.51945 | 46.93943 | 32824 ft | 510 kts | 98° |
| 2026-05-04 15:04 | 23.51216 | 47.01642 | 32832 ft | 510 kts | 98° |
| 2026-05-04 15:05 | 23.50486 | 47.09339 | 32828 ft | 511 kts | 97° |
| 2026-05-04 15:05 | 23.49757 | 47.16996 | 32822 ft | 511 kts | 97° |
| 2026-05-04 15:06 | 23.49018 | 47.24703 | 32812 ft | 511 kts | 97° |
| 2026-05-04 15:07 | 23.47904 | 47.36243 | 32814 ft | 510 kts | 98° |
| 2026-05-04 15:07 | 23.47158 | 47.43934 | 32808 ft | 510 kts | 98° |
| 2026-05-04 15:08 | 23.46409 | 47.51613 | 32803 ft | 509 kts | 97° |
| 2026-05-04 15:08 | 23.45661 | 47.59279 | 32801 ft | 509 kts | 97° |
| 2026-05-04 15:09 | 23.44914 | 47.66934 | 32795 ft | 508 kts | 97° |
| 2026-05-04 15:09 | 23.44165 | 47.74592 | 32796 ft | 508 kts | 97° |
| 2026-05-04 15:10 | 23.43161 | 47.84763 | 32785 ft | 507 kts | 97° |
| 2026-05-04 15:11 | 23.41900 | 47.97458 | 32777 ft | 507 kts | 98° |
| 2026-05-04 15:11 | 23.41138 | 48.05070 | 32777 ft | 507 kts | 98° |
| 2026-05-04 15:12 | 23.40495 | 48.11468 | 32776 ft | 506 kts | 98° |
| 2026-05-04 15:12 | 23.39725 | 48.19088 | 32777 ft | 506 kts | 98° |
| 2026-05-04 15:13 | 23.38952 | 48.26707 | 32768 ft | 506 kts | 98° |
| 2026-05-04 15:13 | 23.38190 | 48.34285 | 32767 ft | 507 kts | 96° |
| 2026-05-04 15:14 | 23.37781 | 48.41945 | 32768 ft | 507 kts | 93° |
| 2026-05-04 15:14 | 23.37540 | 48.49627 | 32771 ft | 507 kts | 93° |
| 2026-05-04 15:15 | 23.37273 | 48.57312 | 32769 ft | 508 kts | 94° |
| 2026-05-04 15:15 | 23.36966 | 48.64991 | 32764 ft | 508 kts | 94° |
| 2026-05-04 15:16 | 23.36483 | 48.76505 | 32764 ft | 508 kts | 94° |
| 2026-05-04 15:17 | 23.35996 | 48.88039 | 32756 ft | 508 kts | 94° |
| 2026-05-04 15:17 | 23.35504 | 48.99519 | 32757 ft | 508 kts | 94° |
| 2026-05-04 15:18 | 23.35144 | 49.07193 | 32755 ft | 507 kts | 97° |
| 2026-05-04 15:19 | 23.33599 | 49.18558 | 32758 ft | 505 kts | 101° |
| 2026-05-04 15:19 | 23.31851 | 49.29872 | 32758 ft | 505 kts | 101° |
| 2026-05-04 15:20 | 23.30740 | 49.37429 | 32758 ft | 506 kts | 101° |
| 2026-05-04 15:20 | 23.29647 | 49.44980 | 32750 ft | 506 kts | 100° |
| 2026-05-04 15:21 | 23.28551 | 49.52544 | 32759 ft | 506 kts | 100° |
| 2026-05-04 15:22 | 23.26897 | 49.63874 | 32761 ft | 506 kts | 101° |
| 2026-05-04 15:22 | 23.25232 | 49.75205 | 32760 ft | 506 kts | 101° |
| 2026-05-04 15:23 | 23.24116 | 49.82762 | 32760 ft | 506 kts | 101° |
| 2026-05-04 15:23 | 23.22996 | 49.90326 | 32762 ft | 506 kts | 101° |
| 2026-05-04 15:24 | 23.20754 | 50.05388 | 32764 ft | 506 kts | 101° |
| 2026-05-04 15:25 | 23.19623 | 50.12945 | 32759 ft | 506 kts | 101° |
| 2026-05-04 15:26 | 23.17922 | 50.24273 | 32759 ft | 505 kts | 101° |
| 2026-05-04 15:26 | 23.16217 | 50.35562 | 32765 ft | 505 kts | 101° |
| 2026-05-04 15:27 | 23.14506 | 50.46843 | 32766 ft | 504 kts | 101° |
| 2026-05-04 15:28 | 23.12788 | 50.58115 | 32761 ft | 504 kts | 101° |
| 2026-05-04 15:29 | 23.11061 | 50.69383 | 32758 ft | 504 kts | 101° |
| 2026-05-04 15:30 | 23.07010 | 50.95620 | 32764 ft | 504 kts | 101° |
| 2026-05-04 15:31 | 23.05255 | 51.06873 | 32764 ft | 504 kts | 101° |
| 2026-05-04 15:32 | 23.02315 | 51.25634 | 32766 ft | 504 kts | 101° |
| 2026-05-04 15:34 | 22.99353 | 51.44384 | 32764 ft | 504 kts | 101° |
| 2026-05-04 15:34 | 22.97573 | 51.55586 | 32763 ft | 504 kts | 101° |
| 2026-05-04 15:35 | 22.95776 | 51.66830 | 32771 ft | 504 kts | 101° |
| 2026-05-04 15:36 | 22.93973 | 51.78067 | 32767 ft | 504 kts | 101° |
| 2026-05-04 15:36 | 22.92767 | 51.85560 | 32765 ft | 504 kts | 101° |
| 2026-05-04 15:37 | 22.91557 | 51.93049 | 32771 ft | 504 kts | 101° |
| 2026-05-04 15:37 | 22.90341 | 52.00545 | 32767 ft | 503 kts | 101° |
| 2026-05-04 15:38 | 22.89133 | 52.07979 | 32765 ft | 504 kts | 101° |
| 2026-05-04 15:38 | 22.87912 | 52.15469 | 32761 ft | 504 kts | 101° |
| 2026-05-04 15:39 | 22.86687 | 52.22942 | 32775 ft | 503 kts | 101° |
| 2026-05-04 15:40 | 22.84849 | 52.34157 | 32773 ft | 504 kts | 101° |
| 2026-05-04 15:40 | 22.83617 | 52.41638 | 32764 ft | 504 kts | 101° |
| 2026-05-04 15:41 | 22.82416 | 52.49121 | 32763 ft | 504 kts | 97° |
| 2026-05-04 15:41 | 22.82077 | 52.56662 | 32767 ft | 504 kts | 91° |
| 2026-05-04 15:42 | 22.81960 | 52.64270 | 32771 ft | 504 kts | 91° |
| 2026-05-04 15:42 | 22.81818 | 52.71865 | 32763 ft | 504 kts | 91° |
| 2026-05-04 15:43 | 22.81631 | 52.79458 | 32767 ft | 504 kts | 92° |
| 2026-05-04 15:43 | 22.81425 | 52.87049 | 32769 ft | 504 kts | 92° |
| 2026-05-04 15:44 | 22.81216 | 52.94629 | 32771 ft | 504 kts | 92° |
| 2026-05-04 15:44 | 22.81005 | 53.02232 | 32766 ft | 504 kts | 92° |
| 2026-05-04 15:45 | 22.80792 | 53.09822 | 32759 ft | 503 kts | 92° |
| 2026-05-04 15:45 | 22.80575 | 53.17403 | 32765 ft | 503 kts | 92° |
| 2026-05-04 15:46 | 22.80356 | 53.24939 | 32759 ft | 503 kts | 92° |
| 2026-05-04 15:46 | 22.80132 | 53.32527 | 32762 ft | 503 kts | 92° |
| 2026-05-04 15:47 | 22.79905 | 53.40111 | 32764 ft | 503 kts | 92° |
| 2026-05-04 15:47 | 22.79673 | 53.47693 | 32767 ft | 504 kts | 92° |
| 2026-05-04 15:48 | 22.79439 | 53.55293 | 32760 ft | 504 kts | 92° |
| 2026-05-04 15:48 | 22.79080 | 53.66680 | 32763 ft | 504 kts | 92° |
| 2026-05-04 15:49 | 22.78836 | 53.74286 | 32761 ft | 505 kts | 92° |
| 2026-05-04 15:49 | 22.78588 | 53.81889 | 32758 ft | 505 kts | 92° |
| 2026-05-04 15:50 | 22.78336 | 53.89490 | 32763 ft | 505 kts | 92° |
| 2026-05-04 15:50 | 22.78089 | 53.97099 | 32761 ft | 505 kts | 90° |
| 2026-05-04 15:51 | 22.78878 | 54.04631 | 32772 ft | 503 kts | 76° |
| 2026-05-04 15:51 | 22.80452 | 54.12022 | 32757 ft | 504 kts | 76° |
| 2026-05-04 15:52 | 22.81771 | 54.18172 | 32760 ft | 504 kts | 76° |
| 2026-05-04 15:52 | 22.83303 | 54.25584 | 32755 ft | 504 kts | 76° |
| 2026-05-04 15:53 | 22.84797 | 54.32973 | 32759 ft | 504 kts | 77° |
| 2026-05-04 15:53 | 22.86299 | 54.40454 | 32767 ft | 504 kts | 77° |
| 2026-05-04 15:54 | 22.87786 | 54.47872 | 32761 ft | 504 kts | 76° |
| 2026-05-04 15:54 | 22.89299 | 54.55421 | 32763 ft | 505 kts | 76° |
| 2026-05-04 15:55 | 22.90788 | 54.62871 | 32756 ft | 505 kts | 76° |
| 2026-05-04 15:55 | 22.92272 | 54.70320 | 32759 ft | 505 kts | 76° |
| 2026-05-04 15:56 | 22.93754 | 54.77768 | 32755 ft | 505 kts | 77° |
| 2026-05-04 15:56 | 22.95235 | 54.85227 | 32759 ft | 505 kts | 77° |
| 2026-05-04 15:57 | 22.96698 | 54.92630 | 32762 ft | 505 kts | 77° |
| 2026-05-04 15:57 | 22.98177 | 55.00126 | 32766 ft | 505 kts | 77° |
| 2026-05-04 15:58 | 22.99647 | 55.07597 | 32773 ft | 505 kts | 77° |
| 2026-05-04 15:58 | 23.01103 | 55.15010 | 32776 ft | 505 kts | 77° |
| 2026-05-04 15:59 | 23.02119 | 55.18645 | 32753 ft | 503 kts | 62° |
| 2026-05-04 15:59 | 23.03992 | 55.21810 | 32784 ft | 496 kts | 45° |
| 2026-05-04 15:59 | 23.06491 | 55.24323 | 32795 ft | 489 kts | 32° |
| 2026-05-04 15:59 | 23.09416 | 55.26160 | 32771 ft | 482 kts | 18° |
| 2026-05-04 16:00 | 23.15773 | 55.28154 | 32780 ft | 478 kts | 10° |
| 2026-05-04 16:00 | 23.22189 | 55.29902 | 32771 ft | 479 kts | 10° |
| 2026-05-04 16:01 | 23.28642 | 55.31740 | 32786 ft | 480 kts | 11° |
| 2026-05-04 16:01 | 23.35134 | 55.33647 | 32789 ft | 480 kts | 11° |
| 2026-05-04 16:02 | 23.41562 | 55.35543 | 32782 ft | 481 kts | 11° |
| 2026-05-04 16:03 | 23.51326 | 55.38418 | 32789 ft | 481 kts | 11° |
| 2026-05-04 16:03 | 23.57751 | 55.40319 | 32306 ft | 487 kts | 11° |
| 2026-05-04 16:03 | 23.61030 | 55.41294 | 31605 ft | 485 kts | 11° |
| 2026-05-04 16:04 | 23.64321 | 55.42275 | 30819 ft | 485 kts | 11° |
| 2026-05-04 16:04 | 23.70825 | 55.44212 | 29006 ft | 490 kts | 11° |
| 2026-05-04 16:04 | 23.74113 | 55.45191 | 28041 ft | 490 kts | 12° |
| 2026-05-04 16:05 | 23.77409 | 55.46174 | 27057 ft | 491 kts | 12° |
| 2026-05-04 16:05 | 23.80710 | 55.47159 | 26059 ft | 492 kts | 12° |
| 2026-05-04 16:05 | 23.87298 | 55.49125 | 24640 ft | 482 kts | 12° |
| 2026-05-04 16:06 | 23.90534 | 55.50089 | 24274 ft | 470 kts | 13° |
| 2026-05-04 16:06 | 23.99039 | 55.52839 | 23384 ft | 484 kts | 21° |
| 2026-05-04 16:07 | 24.02966 | 55.55204 | 22897 ft | 480 kts | 32° |
| 2026-05-04 16:07 | 24.11053 | 55.61065 | 21363 ft | 456 kts | 15° |
| 2026-05-04 16:08 | 24.14124 | 55.61810 | 20584 ft | 449 kts | 5° |
| 2026-05-04 16:08 | 24.23305 | 55.61987 | 18583 ft | 431 kts | 359° |
| 2026-05-04 16:09 | 24.29221 | 55.62068 | 17303 ft | 420 kts | 360° |
| 2026-05-04 16:09 | 24.34956 | 55.62170 | 16343 ft | 407 kts | 360° |
| 2026-05-04 16:10 | 24.40682 | 55.62274 | 15454 ft | 414 kts | 0° |
| 2026-05-04 16:11 | 24.49209 | 55.62432 | 14106 ft | 404 kts | 0° |
| 2026-05-04 16:11 | 24.51982 | 55.62482 | 13658 ft | 402 kts | 0° |
| 2026-05-04 16:12 | 24.60185 | 55.62633 | 12300 ft | 380 kts | 0° |
| 2026-05-04 16:12 | 24.67844 | 55.62776 | 11107 ft | 355 kts | 360° |
| 2026-05-04 16:13 | 24.72650 | 55.62864 | 10492 ft | 338 kts | 359° |
| 2026-05-04 16:13 | 24.77276 | 55.62948 | 9929 ft | 323 kts | 359° |
| 2026-05-04 16:14 | 24.81565 | 55.63030 | 9857 ft | 295 kts | 359° |
| 2026-05-04 16:14 | 24.85504 | 55.63103 | 9700 ft | 273 kts | 359° |
| 2026-05-04 16:15 | 24.91258 | 55.63205 | 8073 ft | 280 kts | 359° |
| 2026-05-04 16:16 | 24.94553 | 55.63265 | 7106 ft | 282 kts | 359° |
| 2026-05-04 16:16 | 25.00490 | 55.63375 | 6032 ft | 283 kts | 360° |
| 2026-05-04 16:17 | 25.04422 | 55.63448 | 5367 ft | 282 kts | 360° |
| 2026-05-04 16:18 | 25.10100 | 55.62750 | 4430 ft | 275 kts | 325° |
| 2026-05-04 16:18 | 25.11413 | 55.61270 | 4289 ft | 267 kts | 309° |
| 2026-05-04 16:19 | 25.14424 | 55.56154 | 3326 ft | 257 kts | 301° |
| 2026-05-04 16:19 | 25.16127 | 55.53046 | 2708 ft | 215 kts | 301° |
| 2026-05-04 16:20 | 25.18083 | 55.49493 | 2030 ft | 153 kts | 300° |
| 2026-05-04 16:20 | 25.19096 | 55.47632 | 1682 ft | 139 kts | 301° |
| 2026-05-04 16:21 | 25.20428 | 55.45235 | 1236 ft | 134 kts | 300° |
| 2026-05-04 16:22 | 25.21409 | 55.43445 | 869 ft | 138 kts | 301° |
| 2026-05-04 16:22 | 25.22934 | 55.40694 | 386 ft | 135 kts | 302° |
| 2026-05-04 16:23 | 25.24340 | 55.38115 | 30 ft | 100 kts | 303° |
| 2026-05-04 16:24 | 25.25121 | 55.36727 | 27 ft | 38 kts | 301° |
| 2026-05-04 16:25 | 25.25297 | 55.36466 | 27 ft | 10 kts | 348° |
| 2026-05-04 16:26 | 25.25519 | 55.36392 | 27 ft | 13 kts | 303° |
| 2026-05-04 16:26 | 25.25682 | 55.36123 | 23 ft | 16 kts | 329° |
| 2026-05-04 16:27 | 25.25810 | 55.36194 | 28 ft | 14 kts | 31° |
| 2026-05-04 16:28 | 25.26038 | 55.36210 | 24 ft | 21 kts | 298° |
| 2026-05-04 16:28 | 25.26316 | 55.35872 | 21 ft | 19 kts | 313° |
| 2026-05-04 16:29 | 25.26622 | 55.35329 | 21 ft | 24 kts | 301° |
| 2026-05-04 16:30 | 25.26719 | 55.35331 | 21 ft | 0 kts | 31° |
| 2026-05-04 16:31 | 25.26720 | 55.35331 | 21 ft | 0 kts | 31° |